sensor_id;sensor_type;location;lat;lon;timestamp;temperature;humidity
40289;DHT22;28991;52.028;5.526;2023-01-30T06:34:10;18.40;41.10
40289;DHT22;28991;52.028;5.526;2023-01-30T06:36:36;17.60;40.90
40289;DHT22;28991;52.028;5.526;2023-01-30T06:39:02;18.20;40.90
40289;DHT22;28991;52.028;5.526;2023-01-30T06:41:27;18.30;41.60
40289;DHT22;28991;52.028;5.526;2023-01-30T06:43:53;18.30;41.60
40289;DHT22;28991;52.028;5.526;2023-01-30T06:46:20;18.10;41.40
40289;DHT22;28991;52.028;5.526;2023-01-30T06:48:45;18.30;41.40
40289;DHT22;28991;52.028;5.526;2023-01-30T06:51:11;18.70;41.60
40289;DHT22;28991;52.028;5.526;2023-01-30T06:53:37;18.30;41.30
40289;DHT22;28991;52.028;5.526;2023-01-30T06:56:02;18.80;41.60
40289;DHT22;28991;52.028;5.526;2023-01-30T06:58:28;20.10;42.10
40289;DHT22;28991;52.028;5.526;2023-01-30T07:00:54;18.40;41.20
40289;DHT22;28991;52.028;5.526;2023-01-30T07:03:19;19.10;41.40
40289;DHT22;28991;52.028;5.526;2023-01-30T07:05:46;19.60;42.00
40289;DHT22;28991;52.028;5.526;2023-01-30T07:08:12;18.50;41.50
40289;DHT22;28991;52.028;5.526;2023-01-30T07:10:39;18.50;41.50
40289;DHT22;28991;52.028;5.526;2023-01-30T07:13:05;18.50;41.60
40289;DHT22;28991;52.028;5.526;2023-01-30T07:15:31;19.10;42.10
40289;DHT22;28991;52.028;5.526;2023-01-30T07:17:57;18.40;42.00
40289;DHT22;28991;52.028;5.526;2023-01-30T07:20:22;18.40;42.20
40289;DHT22;28991;52.028;5.526;2023-01-30T07:22:50;18.40;42.40
40289;DHT22;28991;52.028;5.526;2023-01-30T07:25:16;18.30;42.40
40289;DHT22;28991;52.028;5.526;2023-01-30T07:27:41;18.40;42.50
40289;DHT22;28991;52.028;5.526;2023-01-30T07:30:08;18.40;42.50
40289;DHT22;28991;52.028;5.526;2023-01-30T07:32:33;18.40;42.60
40289;DHT22;28991;52.028;5.526;2023-01-30T07:34:59;18.40;42.50
40289;DHT22;28991;52.028;5.526;2023-01-30T07:37:24;18.40;42.50
40289;DHT22;28991;52.028;5.526;2023-01-30T07:39:50;19.60;43.10
40289;DHT22;28991;52.028;5.526;2023-01-30T07:42:16;18.80;42.70
40289;DHT22;28991;52.028;5.526;2023-01-30T07:44:41;18.40;42.50
40289;DHT22;28991;52.028;5.526;2023-01-30T07:47:07;18.40;42.40
40289;DHT22;28991;52.028;5.526;2023-01-30T07:49:32;18.10;42.20
40289;DHT22;28991;52.028;5.526;2023-01-30T07:51:58;18.80;42.60
40289;DHT22;28991;52.028;5.526;2023-01-30T07:54:23;18.60;42.60
40289;DHT22;28991;52.028;5.526;2023-01-30T07:56:50;18.40;42.40
40289;DHT22;28991;52.028;5.526;2023-01-30T07:59:16;18.30;42.60
40289;DHT22;28991;52.028;5.526;2023-01-30T08:01:42;18.50;43.10
40289;DHT22;28991;52.028;5.526;2023-01-30T08:04:07;19.10;43.50
40289;DHT22;28991;52.028;5.526;2023-01-30T08:06:33;18.30;42.90
40289;DHT22;28991;52.028;5.526;2023-01-30T08:09:03;18.80;43.10
40289;DHT22;28991;52.028;5.526;2023-01-30T08:11:29;18.40;43.20
40289;DHT22;28991;52.028;5.526;2023-01-30T08:13:54;18.40;42.70
40289;DHT22;28991;52.028;5.526;2023-01-30T08:16:20;18.20;42.40
40289;DHT22;28991;52.028;5.526;2023-01-30T08:18:46;18.40;42.30
40289;DHT22;28991;52.028;5.526;2023-01-30T08:21:11;18.40;41.90
40289;DHT22;28991;52.028;5.526;2023-01-30T08:23:37;18.50;41.70
40289;DHT22;28991;52.028;5.526;2023-01-30T08:26:03;18.50;41.60
40289;DHT22;28991;52.028;5.526;2023-01-30T08:28:29;18.50;41.30
40289;DHT22;28991;52.028;5.526;2023-01-30T08:30:55;18.50;41.20
40289;DHT22;28991;52.028;5.526;2023-01-30T08:33:22;18.50;40.90
40289;DHT22;28991;52.028;5.526;2023-01-30T08:35:48;18.50;41.10
40289;DHT22;28991;52.028;5.526;2023-01-30T08:38:14;18.50;40.70
40289;DHT22;28991;52.028;5.526;2023-01-30T08:40:40;18.60;40.90
40289;DHT22;28991;52.028;5.526;2023-01-30T08:43:06;18.70;41.00
40289;DHT22;28991;52.028;5.526;2023-01-30T08:45:32;18.70;41.00
40289;DHT22;28991;52.028;5.526;2023-01-30T08:48:00;20.90;42.20
40289;DHT22;28991;52.028;5.526;2023-01-30T08:50:26;18.70;41.00
40289;DHT22;28991;52.028;5.526;2023-01-30T08:52:51;18.70;40.90
40289;DHT22;28991;52.028;5.526;2023-01-30T08:55:17;18.80;40.80
40289;DHT22;28991;52.028;5.526;2023-01-30T08:57:43;18.80;40.80
40289;DHT22;28991;52.028;5.526;2023-01-30T09:00:10;18.80;40.70
40289;DHT22;28991;52.028;5.526;2023-01-30T09:02:35;18.80;40.70
40289;DHT22;28991;52.028;5.526;2023-01-30T09:05:02;18.80;40.60
40289;DHT22;28991;52.028;5.526;2023-01-30T09:07:28;18.80;40.60
40289;DHT22;28991;52.028;5.526;2023-01-30T09:09:53;18.70;40.60
40289;DHT22;28991;52.028;5.526;2023-01-30T09:12:19;18.70;40.30
40289;DHT22;28991;52.028;5.526;2023-01-30T09:14:45;18.70;40.30
40289;DHT22;28991;52.028;5.526;2023-01-30T09:17:11;18.70;40.50
40289;DHT22;28991;52.028;5.526;2023-01-30T09:19:36;18.60;40.70
40289;DHT22;28991;52.028;5.526;2023-01-30T09:22:02;18.70;40.60
40289;DHT22;28991;52.028;5.526;2023-01-30T09:24:28;18.60;40.40
40289;DHT22;28991;52.028;5.526;2023-01-30T09:26:55;18.60;40.80
40289;DHT22;28991;52.028;5.526;2023-01-30T09:29:23;18.60;40.80
40289;DHT22;28991;52.028;5.526;2023-01-30T09:31:49;18.60;40.80
40289;DHT22;28991;52.028;5.526;2023-01-30T09:34:15;18.60;40.70
40289;DHT22;28991;52.028;5.526;2023-01-30T09:36:41;18.60;40.80
40289;DHT22;28991;52.028;5.526;2023-01-30T09:39:07;18.60;41.50
40289;DHT22;28991;52.028;5.526;2023-01-30T09:41:47;18.60;41.00
40289;DHT22;28991;52.028;5.526;2023-01-30T09:44:43;18.60;41.10
40289;DHT22;28991;52.028;5.526;2023-01-30T09:47:12;18.60;41.30
40289;DHT22;28991;52.028;5.526;2023-01-30T09:55:35;18.50;41.60
40289;DHT22;28991;52.028;5.526;2023-01-30T09:57:52;18.60;41.70
40289;DHT22;28991;52.028;5.526;2023-01-30T10:00:37;18.50;41.60
40289;DHT22;28991;52.028;5.526;2023-01-30T10:03:18;18.50;41.50
40289;DHT22;28991;52.028;5.526;2023-01-30T10:05:50;18.60;41.60
40289;DHT22;28991;52.028;5.526;2023-01-30T10:17:09;18.60;41.50
40289;DHT22;28991;52.028;5.526;2023-01-30T10:19:49;18.50;41.20
40289;DHT22;28991;52.028;5.526;2023-01-30T10:22:24;18.50;41.30
40289;DHT22;28991;52.028;5.526;2023-01-30T10:26:24;18.50;40.70
40289;DHT22;28991;52.028;5.526;2023-01-30T10:29:04;18.50;41.30
40289;DHT22;28991;52.028;5.526;2023-01-30T10:31:46;18.50;41.90
40289;DHT22;28991;52.028;5.526;2023-01-30T10:34:29;18.60;42.20
40289;DHT22;28991;52.028;5.526;2023-01-30T10:42:16;18.70;43.50
40289;DHT22;28991;52.028;5.526;2023-01-30T10:44:44;18.70;43.10
40289;DHT22;28991;52.028;5.526;2023-01-30T10:49:51;18.60;42.90
40289;DHT22;28991;52.028;5.526;2023-01-30T10:55:31;18.70;42.90
40289;DHT22;28991;52.028;5.526;2023-01-30T11:00:59;18.60;42.50
40289;DHT22;28991;52.028;5.526;2023-01-30T11:06:11;18.60;42.30
40289;DHT22;28991;52.028;5.526;2023-01-30T11:08:38;18.60;42.10
40289;DHT22;28991;52.028;5.526;2023-01-30T11:11:30;18.60;42.10
40289;DHT22;28991;52.028;5.526;2023-01-30T11:14:09;18.60;42.00
40289;DHT22;28991;52.028;5.526;2023-01-30T11:16:54;18.70;41.90
40289;DHT22;28991;52.028;5.526;2023-01-30T11:19:31;18.60;41.80
40289;DHT22;28991;52.028;5.526;2023-01-30T11:22:03;18.70;41.70
40289;DHT22;28991;52.028;5.526;2023-01-30T11:24:37;18.70;41.70
40289;DHT22;28991;52.028;5.526;2023-01-30T11:27:24;18.70;41.60
40289;DHT22;28991;52.028;5.526;2023-01-30T11:30:08;18.80;41.60
40289;DHT22;28991;52.028;5.526;2023-01-30T11:32:34;18.80;41.60
40289;DHT22;28991;52.028;5.526;2023-01-30T11:37:36;18.90;41.50
40289;DHT22;28991;52.028;5.526;2023-01-30T11:42:52;18.90;41.30
40289;DHT22;28991;52.028;5.526;2023-01-30T11:45:23;18.90;41.00
40289;DHT22;28991;52.028;5.526;2023-01-30T11:47:58;18.90;40.90
40289;DHT22;28991;52.028;5.526;2023-01-30T11:51:02;18.70;40.80
40289;DHT22;28991;52.028;5.526;2023-01-30T11:56:51;18.90;40.80
40289;DHT22;28991;52.028;5.526;2023-01-30T11:59:05;18.90;40.50
40289;DHT22;28991;52.028;5.526;2023-01-30T12:01:34;19.00;40.50
40289;DHT22;28991;52.028;5.526;2023-01-30T12:04:04;19.00;40.10
40289;DHT22;28991;52.028;5.526;2023-01-30T12:06:36;19.00;40.10
40289;DHT22;28991;52.028;5.526;2023-01-30T12:09:03;19.00;39.70
40289;DHT22;28991;52.028;5.526;2023-01-30T12:14:41;19.10;39.90
40289;DHT22;28991;52.028;5.526;2023-01-30T12:20:22;19.10;40.10
40289;DHT22;28991;52.028;5.526;2023-01-30T12:25:32;19.10;40.80
40289;DHT22;28991;52.028;5.526;2023-01-30T12:31:11;19.10;40.90
40289;DHT22;28991;52.028;5.526;2023-01-30T12:33:38;19.10;40.90
40289;DHT22;28991;52.028;5.526;2023-01-30T12:36:22;19.10;40.80
40289;DHT22;28991;52.028;5.526;2023-01-30T12:47:30;19.00;40.40
40289;DHT22;28991;52.028;5.526;2023-01-30T12:56:11;18.90;40.70
40289;DHT22;28991;52.028;5.526;2023-01-30T13:07:00;19.00;40.70
40289;DHT22;28991;52.028;5.526;2023-01-30T13:12:22;19.00;40.70
40289;DHT22;28991;52.028;5.526;2023-01-30T13:15:27;19.00;40.50
40289;DHT22;28991;52.028;5.526;2023-01-30T13:21:00;19.00;40.50
40289;DHT22;28991;52.028;5.526;2023-01-30T13:28:37;18.90;40.20
40289;DHT22;28991;52.028;5.526;2023-01-30T13:31:06;18.90;40.40
40289;DHT22;28991;52.028;5.526;2023-01-30T13:33:36;18.90;40.20
40289;DHT22;28991;52.028;5.526;2023-01-30T13:39:03;18.90;40.40
40289;DHT22;28991;52.028;5.526;2023-01-30T13:41:37;18.90;40.10
40289;DHT22;28991;52.028;5.526;2023-01-30T13:44:31;19.00;40.30
40289;DHT22;28991;52.028;5.526;2023-01-30T13:55:38;18.80;40.00
40289;DHT22;28991;52.028;5.526;2023-01-30T13:58:37;18.90;40.00
40289;DHT22;28991;52.028;5.526;2023-01-30T14:01:09;18.80;40.20
40289;DHT22;28991;52.028;5.526;2023-01-30T14:03:36;18.90;40.20
40289;DHT22;28991;52.028;5.526;2023-01-30T14:08:47;18.90;40.10
40289;DHT22;28991;52.028;5.526;2023-01-30T14:14:05;18.90;39.90
40289;DHT22;28991;52.028;5.526;2023-01-30T14:16:45;18.90;40.00
40289;DHT22;28991;52.028;5.526;2023-01-30T14:19:44;18.90;40.20
40289;DHT22;28991;52.028;5.526;2023-01-30T14:24:48;18.90;40.10
40289;DHT22;28991;52.028;5.526;2023-01-30T14:27:30;18.90;40.10
40289;DHT22;28991;52.028;5.526;2023-01-30T14:29:57;18.90;40.10
40289;DHT22;28991;52.028;5.526;2023-01-30T14:40:00;18.90;39.90
40289;DHT22;28991;52.028;5.526;2023-01-30T14:42:29;18.90;39.90
40289;DHT22;28991;52.028;5.526;2023-01-30T14:45:00;18.80;39.70
40289;DHT22;28991;52.028;5.526;2023-01-30T14:47:28;18.90;39.70
40289;DHT22;28991;52.028;5.526;2023-01-30T14:49:55;18.90;39.60
40289;DHT22;28991;52.028;5.526;2023-01-30T14:52:37;18.90;39.70
40289;DHT22;28991;52.028;5.526;2023-01-30T14:55:04;18.80;39.30
40289;DHT22;28991;52.028;5.526;2023-01-30T14:57:31;18.80;39.40
40289;DHT22;28991;52.028;5.526;2023-01-30T15:00:17;18.80;39.70
40289;DHT22;28991;52.028;5.526;2023-01-30T15:02:56;18.80;39.50
40289;DHT22;28991;52.028;5.526;2023-01-30T15:05:40;18.70;39.20
40289;DHT22;28991;52.028;5.526;2023-01-30T15:08:15;18.80;39.10
40289;DHT22;28991;52.028;5.526;2023-01-30T15:13:31;18.90;38.50
40289;DHT22;28991;52.028;5.526;2023-01-30T15:22:15;19.00;38.00
40289;DHT22;28991;52.028;5.526;2023-01-30T15:33:20;19.20;37.20
40289;DHT22;28991;52.028;5.526;2023-01-30T15:35:46;19.20;37.40
40289;DHT22;28991;52.028;5.526;2023-01-30T15:38:38;19.30;37.20
40289;DHT22;28991;52.028;5.526;2023-01-30T15:41:05;19.40;37.30
40289;DHT22;28991;52.028;5.526;2023-01-30T15:43:51;19.40;37.40
40289;DHT22;28991;52.028;5.526;2023-01-30T15:49:22;19.30;37.70
40289;DHT22;28991;52.028;5.526;2023-01-30T15:51:59;19.30;37.70
40289;DHT22;28991;52.028;5.526;2023-01-30T15:54:25;19.20;38.10
40289;DHT22;28991;52.028;5.526;2023-01-30T15:56:51;19.20;38.30
40289;DHT22;28991;52.028;5.526;2023-01-30T15:59:39;19.10;38.30
40289;DHT22;28991;52.028;5.526;2023-01-30T16:02:22;19.10;38.40
40289;DHT22;28991;52.028;5.526;2023-01-30T16:05:06;19.10;38.60
40289;DHT22;28991;52.028;5.526;2023-01-30T16:07:37;19.10;38.70
40289;DHT22;28991;52.028;5.526;2023-01-30T16:10:02;19.00;38.80
40289;DHT22;28991;52.028;5.526;2023-01-30T16:12:29;19.10;38.90
40289;DHT22;28991;52.028;5.526;2023-01-30T16:14:56;19.00;39.00
40289;DHT22;28991;52.028;5.526;2023-01-30T16:17:27;19.00;39.10
40289;DHT22;28991;52.028;5.526;2023-01-30T16:19:54;18.90;39.10
40289;DHT22;28991;52.028;5.526;2023-01-30T16:22:21;19.00;39.20
40289;DHT22;28991;52.028;5.526;2023-01-30T16:24:51;18.90;39.20
40289;DHT22;28991;52.028;5.526;2023-01-30T16:27:29;18.90;39.40
40289;DHT22;28991;52.028;5.526;2023-01-30T16:30:00;18.90;39.50
40289;DHT22;28991;52.028;5.526;2023-01-30T16:32:30;18.90;39.50
40289;DHT22;28991;52.028;5.526;2023-01-30T16:37:49;18.90;39.90
40289;DHT22;28991;52.028;5.526;2023-01-30T16:40:21;18.70;39.90
40289;DHT22;28991;52.028;5.526;2023-01-30T16:42:58;19.40;40.30
40289;DHT22;28991;52.028;5.526;2023-01-30T16:50:45;18.90;40.20
40289;DHT22;28991;52.028;5.526;2023-01-30T16:53:16;19.10;40.30
40289;DHT22;28991;52.028;5.526;2023-01-30T16:55:55;18.90;40.20
40289;DHT22;28991;52.028;5.526;2023-01-30T16:58:22;18.80;40.20
40289;DHT22;28991;52.028;5.526;2023-01-30T17:00:52;18.90;40.30
40289;DHT22;28991;52.028;5.526;2023-01-30T17:03:26;18.80;40.40
40289;DHT22;28991;52.028;5.526;2023-01-30T17:05:56;18.90;40.60
40289;DHT22;28991;52.028;5.526;2023-01-30T17:08:48;18.90;40.50
40289;DHT22;28991;52.028;5.526;2023-01-30T17:11:38;18.90;40.70
40289;DHT22;28991;52.028;5.526;2023-01-30T17:14:17;18.90;40.70
40289;DHT22;28991;52.028;5.526;2023-01-30T17:17:05;18.90;40.70
40289;DHT22;28991;52.028;5.526;2023-01-30T17:19:35;18.80;40.70
40289;DHT22;28991;52.028;5.526;2023-01-30T17:22:06;18.90;40.80
40289;DHT22;28991;52.028;5.526;2023-01-30T17:24:34;19.00;40.80
40289;DHT22;28991;52.028;5.526;2023-01-30T17:27:01;18.90;40.80
40289;DHT22;28991;52.028;5.526;2023-01-30T17:29:30;18.90;40.90
40289;DHT22;28991;52.028;5.526;2023-01-30T17:31:56;18.90;40.90
40289;DHT22;28991;52.028;5.526;2023-01-30T17:34:23;18.90;41.00
40289;DHT22;28991;52.028;5.526;2023-01-30T17:36:50;18.90;41.00
40289;DHT22;28991;52.028;5.526;2023-01-30T17:39:18;18.80;41.00
40289;DHT22;28991;52.028;5.526;2023-01-30T17:41:44;18.90;41.10
40289;DHT22;28991;52.028;5.526;2023-01-30T17:44:11;18.90;41.10
40289;DHT22;28991;52.028;5.526;2023-01-30T17:46:39;18.90;41.20
40289;DHT22;28991;52.028;5.526;2023-01-30T17:49:20;18.80;41.20
40289;DHT22;28991;52.028;5.526;2023-01-30T17:51:46;18.80;41.20
40289;DHT22;28991;52.028;5.526;2023-01-30T17:54:12;19.10;41.50
40289;DHT22;28991;52.028;5.526;2023-01-30T17:56:41;18.70;41.40
40289;DHT22;28991;52.028;5.526;2023-01-30T17:59:13;19.20;41.70
40289;DHT22;28991;52.028;5.526;2023-01-30T18:01:41;18.60;41.40
40289;DHT22;28991;52.028;5.526;2023-01-30T18:04:06;18.70;41.60
40289;DHT22;28991;52.028;5.526;2023-01-30T18:06:32;18.70;41.60
40289;DHT22;28991;52.028;5.526;2023-01-30T18:08:58;18.70;41.70
40289;DHT22;28991;52.028;5.526;2023-01-30T18:11:24;18.70;41.70
40289;DHT22;28991;52.028;5.526;2023-01-30T18:13:50;18.70;41.70
40289;DHT22;28991;52.028;5.526;2023-01-30T18:16:28;18.70;41.80
40289;DHT22;28991;52.028;5.526;2023-01-30T18:19:00;18.70;41.80
40289;DHT22;28991;52.028;5.526;2023-01-30T18:21:28;18.70;41.80
40289;DHT22;28991;52.028;5.526;2023-01-30T18:23:54;18.70;41.90
40289;DHT22;28991;52.028;5.526;2023-01-30T18:26:20;18.70;41.90
40289;DHT22;28991;52.028;5.526;2023-01-30T18:28:46;18.70;42.00
40289;DHT22;28991;52.028;5.526;2023-01-30T18:31:12;18.70;42.00
40289;DHT22;28991;52.028;5.526;2023-01-30T18:33:38;18.80;42.70
40289;DHT22;28991;52.028;5.526;2023-01-30T18:36:07;18.60;42.00
40289;DHT22;28991;52.028;5.526;2023-01-30T18:38:33;18.60;42.10
40289;DHT22;28991;52.028;5.526;2023-01-30T18:41:06;18.80;42.20
40289;DHT22;28991;52.028;5.526;2023-01-30T18:43:31;19.30;42.50
40289;DHT22;28991;52.028;5.526;2023-01-30T18:46:05;18.70;42.30
40289;DHT22;28991;52.028;5.526;2023-01-30T18:48:31;18.60;42.20
40289;DHT22;28991;52.028;5.526;2023-01-30T18:51:08;19.10;42.50
40289;DHT22;28991;52.028;5.526;2023-01-30T18:53:36;18.50;42.20
40289;DHT22;28991;52.028;5.526;2023-01-30T18:56:02;18.50;42.20
40289;DHT22;28991;52.028;5.526;2023-01-30T18:58:31;18.60;42.30
40289;DHT22;28991;52.028;5.526;2023-01-30T19:00:57;18.60;42.40
40289;DHT22;28991;52.028;5.526;2023-01-30T19:03:24;18.60;42.40
40289;DHT22;28991;52.028;5.526;2023-01-30T19:05:50;18.60;42.40
40289;DHT22;28991;52.028;5.526;2023-01-30T19:08:15;18.90;42.60
40289;DHT22;28991;52.028;5.526;2023-01-30T19:10:41;18.60;42.50
40289;DHT22;28991;52.028;5.526;2023-01-30T19:13:09;18.50;42.50
40289;DHT22;28991;52.028;5.526;2023-01-30T19:15:57;18.50;42.50
40289;DHT22;28991;52.028;5.526;2023-01-30T19:18:25;18.50;42.50
40289;DHT22;28991;52.028;5.526;2023-01-30T19:20:51;18.50;42.60
40289;DHT22;28991;52.028;5.526;2023-01-30T19:23:17;18.50;42.60
40289;DHT22;28991;52.028;5.526;2023-01-30T19:25:43;18.90;42.80
40289;DHT22;28991;52.028;5.526;2023-01-30T19:28:08;18.60;42.70
40289;DHT22;28991;52.028;5.526;2023-01-30T19:30:35;18.50;42.70
40289;DHT22;28991;52.028;5.526;2023-01-30T19:33:00;18.50;42.70
40289;DHT22;28991;52.028;5.526;2023-01-30T19:35:26;18.50;42.80
40289;DHT22;28991;52.028;5.526;2023-01-30T19:37:52;18.90;43.00
40289;DHT22;28991;52.028;5.526;2023-01-30T19:40:19;18.40;42.80
40289;DHT22;28991;52.028;5.526;2023-01-30T19:42:45;18.40;42.80
40289;DHT22;28991;52.028;5.526;2023-01-30T19:45:11;18.50;43.00
40289;DHT22;28991;52.028;5.526;2023-01-30T19:47:36;18.40;42.90
40289;DHT22;28991;52.028;5.526;2023-01-30T19:50:02;18.40;42.90
40289;DHT22;28991;52.028;5.526;2023-01-30T19:52:28;18.50;43.00
40289;DHT22;28991;52.028;5.526;2023-01-30T19:54:53;18.50;43.00
40289;DHT22;28991;52.028;5.526;2023-01-30T19:57:19;18.50;43.10
40289;DHT22;28991;52.028;5.526;2023-01-30T19:59:45;18.50;43.10
40289;DHT22;28991;52.028;5.526;2023-01-30T20:02:10;18.50;43.10
40289;DHT22;28991;52.028;5.526;2023-01-30T20:04:36;18.40;43.00
40289;DHT22;28991;52.028;5.526;2023-01-30T20:07:04;18.40;43.10
40289;DHT22;28991;52.028;5.526;2023-01-30T20:09:29;18.40;43.10
40289;DHT22;28991;52.028;5.526;2023-01-30T20:11:55;18.50;43.20
40289;DHT22;28991;52.028;5.526;2023-01-30T20:14:20;18.40;43.10
40289;DHT22;28991;52.028;5.526;2023-01-30T20:16:46;18.40;43.20
40289;DHT22;28991;52.028;5.526;2023-01-30T20:19:14;18.30;43.20
40289;DHT22;28991;52.028;5.526;2023-01-30T20:21:40;18.40;43.20
40289;DHT22;28991;52.028;5.526;2023-01-30T20:24:06;18.50;43.30
40289;DHT22;28991;52.028;5.526;2023-01-30T20:26:34;18.40;43.30
40289;DHT22;28991;52.028;5.526;2023-01-30T20:29:00;18.40;43.30
40289;DHT22;28991;52.028;5.526;2023-01-30T20:31:28;18.30;43.30
40289;DHT22;28991;52.028;5.526;2023-01-30T20:33:55;18.40;43.40
40289;DHT22;28991;52.028;5.526;2023-01-30T20:36:23;18.40;43.40
40289;DHT22;28991;52.028;5.526;2023-01-30T20:38:50;18.40;43.40
40289;DHT22;28991;52.028;5.526;2023-01-30T20:41:21;18.40;43.40
40289;DHT22;28991;52.028;5.526;2023-01-30T20:43:50;18.40;43.40
40289;DHT22;28991;52.028;5.526;2023-01-30T20:46:21;18.40;43.40
40289;DHT22;28991;52.028;5.526;2023-01-30T20:48:48;18.40;43.40
40289;DHT22;28991;52.028;5.526;2023-01-30T20:51:19;18.40;43.50
40289;DHT22;28991;52.028;5.526;2023-01-30T20:53:47;18.40;43.50
40289;DHT22;28991;52.028;5.526;2023-01-30T20:56:13;18.30;43.50
40289;DHT22;28991;52.028;5.526;2023-01-30T20:58:39;18.40;43.60
40289;DHT22;28991;52.028;5.526;2023-01-30T21:01:16;18.30;43.60
40289;DHT22;28991;52.028;5.526;2023-01-30T21:03:43;18.40;43.60
40289;DHT22;28991;52.028;5.526;2023-01-30T21:06:09;18.40;43.70
40289;DHT22;28991;52.028;5.526;2023-01-30T21:08:39;19.00;43.90
40289;DHT22;28991;52.028;5.526;2023-01-30T21:11:11;18.30;43.60
40289;DHT22;28991;52.028;5.526;2023-01-30T21:13:37;18.40;43.60
40289;DHT22;28991;52.028;5.526;2023-01-30T21:16:06;18.40;43.70
40289;DHT22;28991;52.028;5.526;2023-01-30T21:18:33;18.40;43.70
40289;DHT22;28991;52.028;5.526;2023-01-30T21:20:59;18.30;43.70
40289;DHT22;28991;52.028;5.526;2023-01-30T21:23:26;18.40;43.70
40289;DHT22;28991;52.028;5.526;2023-01-30T21:25:52;18.40;43.70
40289;DHT22;28991;52.028;5.526;2023-01-30T21:28:18;18.30;43.70
40289;DHT22;28991;52.028;5.526;2023-01-30T21:30:43;18.40;43.70
40289;DHT22;28991;52.028;5.526;2023-01-30T21:33:09;18.30;43.70
40289;DHT22;28991;52.028;5.526;2023-01-30T21:35:34;18.30;43.70
40289;DHT22;28991;52.028;5.526;2023-01-30T21:38:00;18.30;43.70
40289;DHT22;28991;52.028;5.526;2023-01-30T21:40:51;18.40;43.80
40289;DHT22;28991;52.028;5.526;2023-01-30T21:43:36;18.30;43.80
40289;DHT22;28991;52.028;5.526;2023-01-30T21:46:02;18.30;43.80
40289;DHT22;28991;52.028;5.526;2023-01-30T21:48:28;18.30;43.70
40289;DHT22;28991;52.028;5.526;2023-01-30T21:50:54;18.30;43.80
40289;DHT22;28991;52.028;5.526;2023-01-30T21:53:19;18.20;43.70
40289;DHT22;28991;52.028;5.526;2023-01-30T21:55:49;18.30;43.80
40289;DHT22;28991;52.028;5.526;2023-01-30T21:58:15;18.30;43.80
40289;DHT22;28991;52.028;5.526;2023-01-30T22:00:41;18.30;43.80
40289;DHT22;28991;52.028;5.526;2023-01-30T22:03:07;18.30;43.80
40289;DHT22;28991;52.028;5.526;2023-01-30T22:05:32;18.30;43.90
40289;DHT22;28991;52.028;5.526;2023-01-30T22:08:01;18.40;43.90
40289;DHT22;28991;52.028;5.526;2023-01-30T22:10:26;18.50;43.90
40289;DHT22;28991;52.028;5.526;2023-01-30T22:12:52;18.60;44.10
40289;DHT22;28991;52.028;5.526;2023-01-30T22:15:18;18.30;43.90
40289;DHT22;28991;52.028;5.526;2023-01-30T22:17:45;18.30;43.90
40289;DHT22;28991;52.028;5.526;2023-01-30T22:20:12;18.30;43.90
40289;DHT22;28991;52.028;5.526;2023-01-30T22:22:38;18.30;43.90
40289;DHT22;28991;52.028;5.526;2023-01-30T22:25:04;18.30;43.90
40289;DHT22;28991;52.028;5.526;2023-01-30T22:27:29;18.30;43.90
40289;DHT22;28991;52.028;5.526;2023-01-30T22:29:55;18.30;44.00
40289;DHT22;28991;52.028;5.526;2023-01-30T22:32:21;18.30;43.90
40289;DHT22;28991;52.028;5.526;2023-01-30T22:34:46;18.30;43.90
40289;DHT22;28991;52.028;5.526;2023-01-30T22:37:12;18.30;43.90
40289;DHT22;28991;52.028;5.526;2023-01-30T22:39:37;18.30;44.00
40289;DHT22;28991;52.028;5.526;2023-01-30T22:42:06;18.40;44.00
40289;DHT22;28991;52.028;5.526;2023-01-30T22:44:31;18.20;43.90
40289;DHT22;28991;52.028;5.526;2023-01-30T22:46:57;18.30;44.00
40289;DHT22;28991;52.028;5.526;2023-01-30T22:49:22;18.30;44.00
40289;DHT22;28991;52.028;5.526;2023-01-30T22:51:48;18.10;43.80
40289;DHT22;28991;52.028;5.526;2023-01-30T22:54:14;18.20;43.90
40289;DHT22;28991;52.028;5.526;2023-01-30T22:56:42;18.30;44.00
40289;DHT22;28991;52.028;5.526;2023-01-30T22:59:08;18.00;43.80
40289;DHT22;28991;52.028;5.526;2023-01-30T23:01:39;18.60;44.10
40289;DHT22;28991;52.028;5.526;2023-01-30T23:04:13;18.20;43.90
40289;DHT22;28991;52.028;5.526;2023-01-30T23:06:39;18.50;44.10
40289;DHT22;28991;52.028;5.526;2023-01-30T23:09:06;18.20;43.90
40289;DHT22;28991;52.028;5.526;2023-01-30T23:11:41;18.30;44.00
40289;DHT22;28991;52.028;5.526;2023-01-30T23:14:10;18.30;44.00
40289;DHT22;28991;52.028;5.526;2023-01-30T23:16:37;18.30;44.00
40289;DHT22;28991;52.028;5.526;2023-01-30T23:19:05;18.60;44.20
40289;DHT22;28991;52.028;5.526;2023-01-30T23:21:34;18.20;44.00
40289;DHT22;28991;52.028;5.526;2023-01-30T23:24:02;18.30;44.00
40289;DHT22;28991;52.028;5.526;2023-01-30T23:26:31;18.20;44.00
40289;DHT22;28991;52.028;5.526;2023-01-30T23:28:57;18.20;44.00
40289;DHT22;28991;52.028;5.526;2023-01-30T23:31:24;18.20;44.00
40289;DHT22;28991;52.028;5.526;2023-01-30T23:33:54;18.30;44.10
40289;DHT22;28991;52.028;5.526;2023-01-30T23:36:20;18.20;44.00
40289;DHT22;28991;52.028;5.526;2023-01-30T23:38:50;18.20;44.00
40289;DHT22;28991;52.028;5.526;2023-01-30T23:41:19;18.20;44.00
40289;DHT22;28991;52.028;5.526;2023-01-30T23:43:45;18.20;44.00
40289;DHT22;28991;52.028;5.526;2023-01-30T23:48:46;18.70;44.30
40289;DHT22;28991;52.028;5.526;2023-01-30T23:51:13;18.20;44.10
40289;DHT22;28991;52.028;5.526;2023-01-30T23:53:39;18.20;44.00
40289;DHT22;28991;52.028;5.526;2023-01-30T23:56:05;18.20;44.00
40289;DHT22;28991;52.028;5.526;2023-01-30T23:58:31;18.20;44.00
